createdAt,value
2022-12-25T00:00:52.491Z,100343.98
2022-12-25T00:02:59.230Z,100347.06
2022-12-25T00:05:05.783Z,100352.16
2022-12-25T00:07:11.888Z,100355.07
2022-12-25T00:09:18.318Z,100358.28
2022-12-25T00:11:26.371Z,100360.58
2022-12-25T00:13:32.692Z,100366.16
2022-12-25T00:15:41.989Z,100372.64
2022-12-25T00:17:48.072Z,100368.45
2022-12-25T00:19:58.525Z,100373.14
2022-12-25T00:22:04.199Z,100375.57
2022-12-25T00:24:10.835Z,100382
2022-12-25T00:26:17.845Z,100385.8
2022-12-25T00:28:24.107Z,100388.38
2022-12-25T00:30:30.312Z,100390.91
2022-12-25T00:32:37.956Z,100383.76
2022-12-25T00:34:43.519Z,100384.41
2022-12-25T00:36:51.515Z,100386.22
2022-12-25T00:39:01.041Z,100398.44
2022-12-25T00:41:10.792Z,100404
2022-12-25T00:43:16.149Z,100411.38
2022-12-25T00:45:21.661Z,100417.61
2022-12-25T00:47:28.469Z,100426.23
2022-12-25T00:49:36.167Z,100429.23
2022-12-25T00:51:42.991Z,100433.28
2022-12-25T00:53:51.631Z,100438.08
2022-12-25T00:55:56.913Z,100434.48
2022-12-25T00:58:02.440Z,100444.8
2022-12-25T01:00:08.365Z,100451.78
2022-12-25T01:02:16.841Z,100449.32
2022-12-25T01:04:23.056Z,100456.51
2022-12-25T01:06:28.629Z,100456.55
2022-12-25T01:08:37.879Z,100461.55
2022-12-25T01:10:44.859Z,100465.27
2022-12-25T01:12:51.623Z,100467.41
2022-12-25T01:14:59.204Z,100467.69
2022-12-25T01:17:04.841Z,100464.7
2022-12-25T01:19:13.472Z,100462.53
2022-12-25T01:21:18.719Z,100463.56
2022-12-25T01:23:24.475Z,100466.06
2022-12-25T01:25:29.828Z,100459.01
2022-12-25T01:27:36.157Z,100456.86
2022-12-25T01:29:41.345Z,100457.45
2022-12-25T01:31:47.639Z,100449.94
2022-12-25T01:34:14.250Z,100446.41
2022-12-25T01:36:20.486Z,100452.09
2022-12-25T01:38:25.984Z,100452.3
2022-12-25T01:40:31.214Z,100450.83
2022-12-25T01:42:39.099Z,100457.55
2022-12-25T01:44:47.250Z,100467
2022-12-25T01:46:53.633Z,100477.47
2022-12-25T01:49:06.987Z,100482.18
2022-12-25T01:51:12.551Z,100477.67
2022-12-25T01:53:41.196Z,100470.88
2022-12-25T01:55:46.670Z,100471.38
2022-12-25T01:57:55.521Z,100472.36
2022-12-25T02:00:03.249Z,100473.31
2022-12-25T02:02:09.904Z,100471.64
2022-12-25T02:04:25.276Z,100477.17
2022-12-25T02:06:39.423Z,100476.72
2022-12-25T02:08:45.247Z,100476.09
2022-12-25T02:10:50.542Z,100466.13
2022-12-25T02:12:56.848Z,100462.28
2022-12-25T02:15:07.029Z,100463.41
2022-12-25T02:17:14.987Z,100458.84
2022-12-25T02:19:20.815Z,100453.56
2022-12-25T02:21:26.104Z,100457.23
2022-12-25T02:23:31.805Z,100452.57
2022-12-25T02:25:37.375Z,100445.48
2022-12-25T02:27:48.461Z,100445.3
2022-12-25T02:29:55.802Z,100447.97
2022-12-25T02:32:06.915Z,100446.74
2022-12-25T02:34:12.470Z,100447.25
2022-12-25T02:36:20.042Z,100446.2
2022-12-25T02:38:25.713Z,100452.36
2022-12-25T02:40:31.360Z,100450.66
2022-12-25T02:42:36.886Z,100446.38
2022-12-25T02:44:42.527Z,100447.1
2022-12-25T02:46:48.300Z,100451.25
2022-12-25T02:48:53.908Z,100446.51
2022-12-25T02:51:01.541Z,100451.64
2022-12-25T02:53:06.802Z,100459.62
2022-12-25T02:55:15.736Z,100462.51
2022-12-25T02:57:30.093Z,100468.92
2022-12-25T02:59:38.445Z,100464.44
2022-12-25T03:01:44.692Z,100462.86
2022-12-25T03:03:50.765Z,100461.3
2022-12-25T03:05:57.844Z,100459.64
2022-12-25T03:08:06.607Z,100460.45
2022-12-25T03:10:12.009Z,100464.61
2022-12-25T03:12:17.585Z,100467.18
2022-12-25T03:14:22.893Z,100471.53
2022-12-25T03:16:33.881Z,100472.94
2022-12-25T03:18:39.547Z,100474.02
2022-12-25T03:20:46.209Z,100476.03
2022-12-25T03:22:51.514Z,100481.81
2022-12-25T03:24:57.097Z,100485.26
2022-12-25T03:27:02.704Z,100485.11
2022-12-25T03:29:08.925Z,100488.23
2022-12-25T03:31:18.915Z,100493.33
2022-12-25T03:33:46.157Z,100496
2022-12-25T03:35:51.833Z,100491.63
2022-12-25T03:37:59.149Z,100490.95
2022-12-25T03:40:05.699Z,100487.17
2022-12-25T03:42:12.728Z,100476.08
2022-12-25T03:44:18.163Z,100475.55
2022-12-25T03:46:23.818Z,100476.77
2022-12-25T03:48:50.139Z,100482.58
2022-12-25T03:50:55.877Z,100483.53
2022-12-25T03:53:06.557Z,100485.65
2022-12-25T03:55:16.439Z,100485.16
2022-12-25T03:57:21.691Z,100488
2022-12-25T03:59:31.835Z,100493.42
2022-12-25T04:01:41.798Z,100493.77
2022-12-25T04:04:14.123Z,100493.39
2022-12-25T04:06:22.229Z,100496.33
2022-12-25T04:08:27.718Z,100498.41
2022-12-25T04:10:42.830Z,100496.84
2022-12-25T04:12:48.188Z,100504.44
2022-12-25T04:14:53.475Z,100500.64
2022-12-25T04:16:59.047Z,100499.49
2022-12-25T04:19:06.688Z,100501.59
2022-12-25T04:21:33.250Z,100504.48
2022-12-25T04:23:44.619Z,100501.25
2022-12-25T04:28:43.574Z,100495.91
2022-12-25T04:30:54.847Z,100496.51
2022-12-25T04:33:21.127Z,100500.7
2022-12-25T04:35:47.157Z,100503.66
2022-12-25T04:38:30.433Z,100500.37
2022-12-25T04:44:08.100Z,100513.34
2022-12-25T04:46:34.318Z,100524.41
2022-12-25T04:49:05.497Z,100529.72
2022-12-25T04:54:04.080Z,100526.94
2022-12-25T04:56:09.803Z,100526.19
2022-12-25T04:58:17.923Z,100525.44
2022-12-25T05:00:27.577Z,100516.48
2022-12-25T05:02:36.570Z,100516.78
2022-12-25T05:04:48.063Z,100508.9
2022-12-25T05:06:54.771Z,100505.56
2022-12-25T05:09:00.202Z,100513.36
2022-12-25T05:11:06.616Z,100513.62
2022-12-25T05:13:16.817Z,100513.66
2022-12-25T05:15:22.470Z,100514.7
2022-12-25T05:17:30.856Z,100513.58
2022-12-25T05:19:39.382Z,100514.9
2022-12-25T05:21:44.747Z,100513.53
2022-12-25T05:23:55.676Z,100506.7
2022-12-25T05:26:01.524Z,100503.55
2022-12-25T05:28:07.848Z,100505.67
2022-12-25T05:30:16.819Z,100513.77
2022-12-25T05:32:22.383Z,100516.88
2022-12-25T05:34:27.826Z,100525.06
2022-12-25T05:36:33.436Z,100531.14
2022-12-25T05:38:38.841Z,100537.6
2022-12-25T05:40:44.199Z,100542.13
2022-12-25T05:42:50.539Z,100540.78
2022-12-25T05:44:57.279Z,100549.33
2022-12-25T05:47:02.718Z,100551.86
2022-12-25T05:49:08.305Z,100554.72
2022-12-25T05:51:14.026Z,100557.56
2022-12-25T05:53:19.743Z,100567
2022-12-25T05:55:26.082Z,100565.24
2022-12-25T05:57:31.548Z,100561.08
2022-12-25T05:59:37.101Z,100562.06
2022-12-25T06:01:43.205Z,100555.69
2022-12-25T06:03:50.034Z,100566.01
2022-12-25T06:05:55.822Z,100568.78
2022-12-25T06:08:01.653Z,100570.23
2022-12-25T06:10:12.828Z,100584.69
2022-12-25T06:12:18.375Z,100591.47
2022-12-25T06:14:26.923Z,100588.66
2022-12-25T06:16:39.628Z,100582.65
2022-12-25T06:18:45.629Z,100585.68
2022-12-25T06:20:54.570Z,100596.91
2022-12-25T06:23:21.233Z,100601.94
2022-12-25T06:25:27.189Z,100600.55
2022-12-25T06:27:54.365Z,100613.02
2022-12-25T06:30:00.820Z,100615.21
2022-12-25T06:32:08.955Z,100616.5
2022-12-25T06:34:35.185Z,100626.9
2022-12-25T06:36:41.859Z,100623.93
2022-12-25T06:38:48.301Z,100632.75
2022-12-25T06:40:53.591Z,100632
2022-12-25T06:42:59.268Z,100632.66
2022-12-25T06:45:05.509Z,100642.3
2022-12-25T06:47:10.675Z,100644.59
2022-12-25T06:49:15.759Z,100656.91
2022-12-25T06:51:22.298Z,100660.13
2022-12-25T06:53:28.690Z,100662.98
2022-12-25T06:55:44.352Z,100668.82
2022-12-25T06:57:50.864Z,100672.02
2022-12-25T06:59:57.021Z,100673.39
2022-12-25T07:02:02.893Z,100670.13
2022-12-25T07:04:08.665Z,100667.09
2022-12-25T07:06:13.907Z,100673.37
2022-12-25T07:08:22.984Z,100681.14
2022-12-25T07:10:29.072Z,100685.34
2022-12-25T07:12:35.108Z,100690.75
2022-12-25T07:14:40.765Z,100689.79
2022-12-25T07:16:49.127Z,100694.33
2022-12-25T07:18:55.920Z,100699.53
2022-12-25T07:21:01.345Z,100701.78
2022-12-25T07:23:06.893Z,100703.63
2022-12-25T07:25:12.093Z,100697.11
2022-12-25T07:27:17.726Z,100699.9
2022-12-25T07:29:23.672Z,100703.06
2022-12-25T07:31:29.274Z,100703.48
2022-12-25T07:33:34.998Z,100709.16
2022-12-25T07:35:41.290Z,100713.27
2022-12-25T07:37:46.983Z,100720.95
2022-12-25T07:39:55.761Z,100721.29
2022-12-25T07:42:02.491Z,100727.94
2022-12-25T07:44:08.308Z,100727
2022-12-25T07:46:15.813Z,100734.53
2022-12-25T07:48:21.892Z,100738.11
2022-12-25T07:50:30.431Z,100736.59
2022-12-25T07:52:44.457Z,100738.89
2022-12-25T07:54:51.228Z,100732.56
2022-12-25T07:56:57.715Z,100737.67
2022-12-25T07:59:10.271Z,100735.66
2022-12-25T08:01:19.918Z,100738.45
2022-12-25T08:03:30.505Z,100741.91
2022-12-25T08:05:38.481Z,100741.76
2022-12-25T08:07:44.700Z,100749.23
2022-12-25T08:09:59.399Z,100750.31
2022-12-25T08:12:11.760Z,100751.48
2022-12-25T08:14:17.748Z,100756.22
2022-12-25T08:16:24.174Z,100755.14
2022-12-25T08:18:31.947Z,100757.92
2022-12-25T08:20:38.211Z,100760.13
2022-12-25T08:22:45.630Z,100763.2
2022-12-25T08:24:52.528Z,100773.48
2022-12-25T08:27:19.745Z,100778.8
2022-12-25T08:29:25.818Z,100785.63
2022-12-25T08:31:33.815Z,100781.94
2022-12-25T08:33:50.958Z,100779.69
2022-12-25T08:35:57.398Z,100783.77
2022-12-25T08:38:03.571Z,100784.23
2022-12-25T08:40:10.241Z,100784.5
2022-12-25T08:42:16.365Z,100797.34
2022-12-25T08:44:23.403Z,100795.7
2022-12-25T08:46:29.926Z,100799.02
2022-12-25T08:48:36.791Z,100803.64
2022-12-25T08:50:43.128Z,100805.92
2022-12-25T08:52:49.412Z,100803.05
2022-12-25T08:54:56.056Z,100806.72
2022-12-25T08:57:04.644Z,100805.59
2022-12-25T08:59:10.925Z,100809.71
2022-12-25T09:01:17.263Z,100809.66
2022-12-25T09:03:24.162Z,100808.88
2022-12-25T09:05:30.540Z,100808.55
2022-12-25T09:07:36.864Z,100802.69
2022-12-25T09:09:43.335Z,100809.97
2022-12-25T09:11:49.498Z,100810.26
2022-12-25T09:13:55.367Z,100816.96
2022-12-25T09:16:03.210Z,100815.63
2022-12-25T09:18:09.411Z,100820.16
2022-12-25T09:20:15.617Z,100824.99
2022-12-25T09:22:24.722Z,100832.77
2022-12-25T09:24:30.597Z,100833.2
2022-12-25T09:26:36.759Z,100834.93
2022-12-25T09:28:52.781Z,100833.05
2022-12-25T09:30:59.126Z,100834.86
2022-12-25T09:33:05.317Z,100832.53
2022-12-25T09:35:11.913Z,100832.72
2022-12-25T09:37:18.091Z,100832.8
2022-12-25T09:39:24.402Z,100835.47
2022-12-25T09:41:30.925Z,100838.83
2022-12-25T09:43:37.163Z,100839.8
2022-12-25T09:46:01.077Z,100837.39
2022-12-25T09:48:07.691Z,100834.93
2022-12-25T09:50:13.740Z,100839.53
2022-12-25T09:52:20.357Z,100841.82
2022-12-25T09:54:26.808Z,100841.3
2022-12-25T09:56:33.802Z,100838.35
2022-12-25T09:58:40.208Z,100834.82
2022-12-25T10:01:07.782Z,100836.91
2022-12-25T10:03:17.293Z,100832.66
2022-12-25T10:05:48.787Z,100833.78
2022-12-25T10:07:55.255Z,100828.94
2022-12-25T10:10:03.119Z,100822.1
2022-12-25T10:12:09.362Z,100820.06
2022-12-25T10:14:19.003Z,100817.91
2022-12-25T10:16:25.513Z,100818.59
2022-12-25T10:18:32.368Z,100816.63
2022-12-25T10:20:41.420Z,100816.81
2022-12-25T10:22:47.954Z,100820.36
2022-12-25T10:24:54.378Z,100820.91
2022-12-25T10:27:00.819Z,100821.47
2022-12-25T10:29:07.020Z,100818.44
2022-12-25T10:31:13.755Z,100820.98
2022-12-25T10:33:20.038Z,100822.13
2022-12-25T10:35:26.119Z,100818.52
2022-12-25T10:37:32.721Z,100814.71
2022-12-25T10:39:47.365Z,100812.88
2022-12-25T10:41:53.717Z,100817.01
2022-12-25T10:44:00.123Z,100820.77
2022-12-25T10:46:07.893Z,100824.13
2022-12-25T10:48:15.287Z,100825.16
2022-12-25T10:50:21.722Z,100830.51
2022-12-25T10:52:28.401Z,100831.7
2022-12-25T10:54:35.372Z,100828.78
2022-12-25T10:56:45.109Z,100828.13
2022-12-25T10:58:52.977Z,100829.28
2022-12-25T11:00:59.841Z,100822.3
2022-12-25T11:03:07.963Z,100826.14
2022-12-25T11:05:15.754Z,100832.34
2022-12-25T11:07:22.191Z,100829.64
2022-12-25T11:09:28.715Z,100831.02
2022-12-25T11:11:35.459Z,100830
2022-12-25T11:13:42.197Z,100828.25
2022-12-25T11:15:49.618Z,100822.86
2022-12-25T11:17:56.163Z,100820.97
2022-12-25T11:20:02.771Z,100820.31
2022-12-25T11:22:09.873Z,100821.96
2022-12-25T11:24:17.691Z,100826.85
2022-12-25T11:26:24.437Z,100819.7
2022-12-25T11:28:30.875Z,100818.99
2022-12-25T11:30:38.146Z,100815.27
2022-12-25T11:32:48.741Z,100816.05
2022-12-25T11:34:55.468Z,100810.57
2022-12-25T11:37:02.008Z,100807.8
2022-12-25T11:39:08.523Z,100808.32
2022-12-25T11:41:15.230Z,100810.23
2022-12-25T11:43:22.900Z,100807.98
2022-12-25T11:45:29.313Z,100809.89
2022-12-25T11:47:35.638Z,100816.47
2022-12-25T11:49:48.795Z,100815.63
2022-12-25T11:52:05.451Z,100819.7
2022-12-25T11:54:11.800Z,100818.69
2022-12-25T11:56:18.784Z,100822.61
2022-12-25T11:58:28.012Z,100828.13
2022-12-25T12:00:34.172Z,100819.72
2022-12-25T12:02:44.249Z,100821.02
2022-12-25T12:04:55.894Z,100818.36
2022-12-25T12:07:02.428Z,100821.23
2022-12-25T12:09:09.768Z,100824.95
2022-12-25T12:11:17.488Z,100827
2022-12-25T12:13:24.644Z,100831.89
2022-12-25T12:15:30.913Z,100833.38
2022-12-25T12:17:38.378Z,100835.29
2022-12-25T12:19:44.848Z,100834.82
2022-12-25T12:21:51.110Z,100838.16
2022-12-25T12:23:57.794Z,100837.69
2022-12-25T12:26:04.268Z,100840.55
2022-12-25T12:28:11.411Z,100840.88
2022-12-25T12:30:18.973Z,100838.95
2022-12-25T12:32:25.779Z,100833.97
2022-12-25T12:34:32.114Z,100836.09
2022-12-25T12:36:38.913Z,100837.61
2022-12-25T12:38:44.978Z,100829.08
2022-12-25T12:40:51.970Z,100833.76
2022-12-25T12:42:58.234Z,100836.06
2022-12-25T12:45:04.706Z,100829.38
2022-12-25T12:47:10.781Z,100826.63
2022-12-25T12:49:18.042Z,100829.43
2022-12-25T12:51:24.537Z,100827.41
2022-12-25T12:53:30.663Z,100829.86
2022-12-25T12:55:37.128Z,100829.82
2022-12-25T12:57:43.032Z,100828.48
2022-12-25T12:59:49.289Z,100826.66
2022-12-25T13:01:56.015Z,100828.63
2022-12-25T13:04:02.861Z,100829.41
2022-12-25T13:06:09.082Z,100828.13
2022-12-25T13:08:16.656Z,100829.11
2022-12-25T13:10:22.952Z,100824.79
2022-12-25T13:12:29.021Z,100828.84
2022-12-25T13:14:35.453Z,100831.13
2022-12-25T13:16:41.904Z,100828.63
2022-12-25T13:18:48.117Z,100832.25
2022-12-25T13:20:54.203Z,100833
2022-12-25T13:23:00.669Z,100834.11
2022-12-25T13:25:12.526Z,100830.53
2022-12-25T13:27:49.930Z,100836.52
2022-12-25T13:29:56.209Z,100839
2022-12-25T13:34:55.493Z,100846.93
2022-12-25T13:37:02.476Z,100850.86
2022-12-25T13:39:08.679Z,100858.13
2022-12-25T13:41:14.973Z,100858.89
2022-12-25T13:43:21.886Z,100855.41
2022-12-25T13:45:28.484Z,100850.23
2022-12-25T13:47:35.572Z,100845.05
2022-12-25T13:49:41.934Z,100848.31
2022-12-25T13:51:52.037Z,100854.64
2022-12-25T13:53:58.283Z,100859.33
2022-12-25T13:56:04.892Z,100864.98
2022-12-25T13:58:11.625Z,100864.53
2022-12-25T14:00:32.267Z,100862.02
2022-12-25T14:02:39.382Z,100862.02
2022-12-25T14:04:48.863Z,100860.37
2022-12-25T14:06:56.623Z,100864.35
2022-12-25T14:09:02.951Z,100866.11
2022-12-25T14:11:09.476Z,100869.52
2022-12-25T14:13:15.383Z,100877.16
2022-12-25T14:15:21.946Z,100878.38
2022-12-25T14:17:28.158Z,100880.7
2022-12-25T14:19:34.476Z,100875.23
2022-12-25T14:21:40.708Z,100879.61
2022-12-25T14:23:48.160Z,100881.44
2022-12-25T14:25:54.766Z,100880.34
2022-12-25T14:28:15.962Z,100875.4
2022-12-25T14:30:24.999Z,100877.77
2022-12-25T14:32:31.413Z,100879.49
2022-12-25T14:34:37.858Z,100880.64
2022-12-25T14:36:45.342Z,100886.67
2022-12-25T14:38:53.085Z,100885.67
2022-12-25T14:41:02.589Z,100885.95
2022-12-25T14:43:09.237Z,100883.33
2022-12-25T14:45:17.605Z,100882.68
2022-12-25T14:47:24.752Z,100877.47
2022-12-25T14:49:30.884Z,100879.25
2022-12-25T14:51:37.551Z,100886.23
2022-12-25T14:53:44.017Z,100884.47
2022-12-25T14:59:01.364Z,100889.7
2022-12-25T15:01:08.995Z,100899.48
2022-12-25T15:03:16.262Z,100902.59
2022-12-25T15:05:23.278Z,100905.72
2022-12-25T15:07:29.881Z,100901.67
2022-12-25T15:09:39.550Z,100903.09
2022-12-25T15:11:49.102Z,100912.45
2022-12-25T15:13:55.658Z,100911.7
2022-12-25T15:16:02.358Z,100912.3
2022-12-25T15:18:09.433Z,100908.77
2022-12-25T15:20:15.865Z,100904.81
2022-12-25T15:22:22.287Z,100895.09
2022-12-25T15:24:28.752Z,100892.67
2022-12-25T15:26:35.251Z,100889.52
2022-12-25T15:28:41.487Z,100896.83
2022-12-25T15:30:48.575Z,100895.05
2022-12-25T15:32:56.855Z,100899.84
2022-12-25T15:35:03.243Z,100903.91
2022-12-25T15:37:12.960Z,100899.74
2022-12-25T15:39:19.148Z,100906.5
2022-12-25T15:41:26.081Z,100911.27
2022-12-25T15:43:48.770Z,100915.63
2022-12-25T15:45:56.178Z,100913.85
2022-12-25T15:48:02.812Z,100914.92
2022-12-25T15:50:09.716Z,100916.62
2022-12-25T15:52:16.339Z,100914.44
2022-12-25T15:54:23.108Z,100909.95
2022-12-25T15:56:30.040Z,100909.04
2022-12-25T15:58:58.583Z,100906.54
2022-12-25T16:01:05.325Z,100905.71
2022-12-25T16:03:15.036Z,100905.72
2022-12-25T16:05:21.891Z,100908.27
2022-12-25T16:07:30.702Z,100911.39
2022-12-25T16:09:37.023Z,100905.58
2022-12-25T16:11:43.724Z,100908.91
2022-12-25T16:13:50.223Z,100906.67
2022-12-25T16:15:57.814Z,100905.13
2022-12-25T16:18:04.837Z,100902.04
2022-12-25T16:20:11.622Z,100900.27
2022-12-25T16:22:18.153Z,100906.3
2022-12-25T16:24:26.092Z,100907.66
2022-12-25T16:26:32.876Z,100911.25
2022-12-25T16:28:39.549Z,100912.33
2022-12-25T16:30:47.251Z,100911.02
2022-12-25T16:32:53.933Z,100912.58
2022-12-25T16:35:00.009Z,100908.09
2022-12-25T16:37:06.363Z,100912.03
2022-12-25T16:39:16.669Z,100910.47
2022-12-25T16:41:22.524Z,100913.44
2022-12-25T16:43:28.740Z,100916.7
2022-12-25T16:45:36.153Z,100918.22
2022-12-25T16:47:43.638Z,100912.75
2022-12-25T16:49:52.032Z,100912.41
2022-12-25T16:52:00.213Z,100910.33
2022-12-25T16:54:10.297Z,100905.45
2022-12-25T16:56:16.991Z,100897.38
2022-12-25T16:58:24.815Z,100893.13
2022-12-25T17:00:33.116Z,100891.75
2022-12-25T17:02:41.331Z,100890.73
2022-12-25T17:04:48.623Z,100895.82
2022-12-25T17:06:57.192Z,100895.19
2022-12-25T17:09:06.163Z,100896.3
2022-12-25T17:11:14.803Z,100893.77
2022-12-25T17:13:21.714Z,100892.93
2022-12-25T17:15:28.760Z,100890.7
2022-12-25T17:17:35.844Z,100887.58
2022-12-25T17:19:42.512Z,100884.84
2022-12-25T17:22:02.871Z,100881.73
2022-12-25T17:24:08.993Z,100879.83
2022-12-25T17:26:28.713Z,100884.68
2022-12-25T17:28:39.239Z,100882.92
2022-12-25T17:30:52.916Z,100880.18
2022-12-25T17:32:59.905Z,100881.98
2022-12-25T17:35:15.395Z,100887.63
2022-12-25T17:37:21.798Z,100880.7
2022-12-25T17:39:28.055Z,100881.88
2022-12-25T17:41:34.587Z,100881.86
2022-12-25T17:43:41.191Z,100883.41
2022-12-25T17:45:48.415Z,100872.27
2022-12-25T17:47:55.395Z,100864.2
2022-12-25T17:50:02.257Z,100869.4
2022-12-25T17:52:12.163Z,100865.2
2022-12-25T17:54:20.243Z,100864.8
2022-12-25T17:56:37.711Z,100854.78
2022-12-25T17:58:44.409Z,100854.2
2022-12-25T18:00:51.635Z,100850.3
2022-12-25T18:03:04.497Z,100847.72
2022-12-25T18:05:17.706Z,100853.42
2022-12-25T18:07:24.194Z,100860.67
2022-12-25T18:09:31.369Z,100874.09
2022-12-25T18:11:38.775Z,100876.27
2022-12-25T18:13:45.242Z,100872.81
2022-12-25T18:15:51.890Z,100876.03
2022-12-25T18:18:00.406Z,100880.36
2022-12-25T18:20:07.697Z,100880.35
2022-12-25T18:22:15.084Z,100880.19
2022-12-25T18:24:22.863Z,100881.89
2022-12-25T18:26:29.886Z,100884.2
2022-12-25T18:28:36.608Z,100889.05
2022-12-25T18:30:43.823Z,100893.34
2022-12-25T18:32:50.938Z,100887.65
2022-12-25T18:34:57.674Z,100887.56
2022-12-25T18:37:05.875Z,100884.09
2022-12-25T18:39:13.068Z,100876.88
2022-12-25T18:41:21.341Z,100869.05
2022-12-25T18:43:56.892Z,100869.41
2022-12-25T18:46:05.700Z,100867.55
2022-12-25T18:48:13.778Z,100865.59
2022-12-25T18:50:22.635Z,100866.14
2022-12-25T18:52:53.389Z,100866.69
2022-12-25T18:55:03.134Z,100871.87
2022-12-25T18:57:13.338Z,100866.48
2022-12-25T18:59:20.282Z,100859.02
2022-12-25T19:01:28.611Z,100852.8
2022-12-25T19:03:40.485Z,100850.45
2022-12-25T19:05:47.368Z,100851.32
2022-12-25T19:07:54.644Z,100845.63
2022-12-25T19:10:01.804Z,100838.27
2022-12-25T19:12:09.595Z,100837.61
2022-12-25T19:14:16.367Z,100837.04
2022-12-25T19:16:25.323Z,100836.3
2022-12-25T19:18:31.766Z,100835.95
2022-12-25T19:20:38.676Z,100836.67
2022-12-25T19:22:45.459Z,100834.62
2022-12-25T19:24:53.739Z,100834.14
2022-12-25T19:27:01.873Z,100839.22
2022-12-25T19:29:09.974Z,100834.18
2022-12-25T19:31:19.533Z,100832.17
2022-12-25T19:33:32.312Z,100831.75
2022-12-25T19:35:39.671Z,100836.07
2022-12-25T19:37:47.486Z,100841.44
2022-12-25T19:39:54.922Z,100840.61
2022-12-25T19:42:03.341Z,100829.06
2022-12-25T19:44:11.194Z,100829.91
2022-12-25T19:46:19.234Z,100829.32
2022-12-25T19:48:26.888Z,100828.32
2022-12-25T19:50:36.326Z,100831.67
2022-12-25T19:52:46.788Z,100829.84
2022-12-25T19:54:54.118Z,100821.59
2022-12-25T19:57:03.136Z,100816.45
2022-12-25T19:59:13.838Z,100823.09
2022-12-25T20:01:28.267Z,100821.83
2022-12-25T20:03:48.079Z,100821
2022-12-25T20:05:56.147Z,100822.43
2022-12-25T20:08:03.387Z,100824.8
2022-12-25T20:10:10.858Z,100823
2022-12-25T20:12:18.295Z,100818.9
2022-12-25T20:14:31.093Z,100819.65
2022-12-25T20:16:48.166Z,100814.81
2022-12-25T20:19:07.336Z,100811.52
2022-12-25T20:21:14.238Z,100813.81
2022-12-25T20:23:21.449Z,100813.2
2022-12-25T20:25:30.820Z,100810.05
2022-12-25T20:27:38.334Z,100807.64
2022-12-25T20:29:45.094Z,100800.77
2022-12-25T20:31:54.019Z,100794.68
2022-12-25T20:34:01.225Z,100791.38
2022-12-25T20:36:08.134Z,100791.22
2022-12-25T20:38:16.984Z,100790.34
2022-12-25T20:40:24.218Z,100789.41
2022-12-25T20:42:30.992Z,100782.95
2022-12-25T20:44:37.324Z,100785.77
2022-12-25T20:46:44.365Z,100784.02
2022-12-25T20:48:51.472Z,100783.88
2022-12-25T20:50:58.495Z,100777.75
2022-12-25T20:53:06.024Z,100777.64
2022-12-25T20:55:12.598Z,100777.3
2022-12-25T20:57:19.124Z,100766.03
2022-12-25T20:59:27.878Z,100764.33
2022-12-25T21:01:43.151Z,100767.38
2022-12-25T21:03:50.153Z,100770.33
2022-12-25T21:05:58.096Z,100775.56
2022-12-25T21:08:05.697Z,100771.2
2022-12-25T21:10:12.093Z,100763.25
2022-12-25T21:12:18.706Z,100757.29
2022-12-25T21:14:25.099Z,100751.57
2022-12-25T21:16:31.731Z,100747.86
2022-12-25T21:18:38.217Z,100747.84
2022-12-25T21:20:44.557Z,100747.29
2022-12-25T21:22:51.360Z,100746.37
2022-12-25T21:24:57.812Z,100744.02
2022-12-25T21:27:04.216Z,100745.13
2022-12-25T21:29:10.693Z,100750.06
2022-12-25T21:31:17.548Z,100748.75
2022-12-25T21:33:24.324Z,100747.91
2022-12-25T21:35:30.591Z,100739.34
2022-12-25T21:37:36.771Z,100736.38
2022-12-25T21:39:42.940Z,100737.2
2022-12-25T21:41:49.279Z,100733.36
2022-12-25T21:43:55.570Z,100737.95
2022-12-25T21:46:01.954Z,100733.98
2022-12-25T21:48:08.606Z,100726.75
2022-12-25T21:50:15.565Z,100723.5
2022-12-25T21:52:21.722Z,100723.35
2022-12-25T21:54:27.957Z,100723.73
2022-12-25T21:56:43.766Z,100731.61
2022-12-25T21:58:50.841Z,100726.31
2022-12-25T22:00:57.259Z,100722.38
2022-12-25T22:03:04.086Z,100722.55
2022-12-25T22:05:11.025Z,100720.19
2022-12-25T22:07:17.541Z,100709.2
2022-12-25T22:09:24.290Z,100701.56
2022-12-25T22:11:30.639Z,100700.31
2022-12-25T22:13:36.489Z,100704.98
2022-12-25T22:15:42.880Z,100703.29
2022-12-25T22:17:49.284Z,100703.12
2022-12-25T22:19:55.078Z,100693.39
2022-12-25T22:22:01.191Z,100698.31
2022-12-25T22:24:07.391Z,100693.92
2022-12-25T22:26:21.092Z,100702.25
2022-12-25T22:28:27.719Z,100701.47
2022-12-25T22:30:34.162Z,100702
2022-12-25T22:32:39.916Z,100692.67
2022-12-25T22:34:45.406Z,100687.45
2022-12-25T22:36:50.616Z,100674.2
2022-12-25T22:38:56.656Z,100663.2
2022-12-25T22:41:02.675Z,100665.2
2022-12-25T22:43:08.541Z,100664.31
2022-12-25T22:45:14.788Z,100662.28
2022-12-25T22:47:21.258Z,100660.81
2022-12-25T22:49:27.404Z,100661.67
2022-12-25T22:51:33.005Z,100660.78
2022-12-25T22:53:38.739Z,100660.84
2022-12-25T22:55:44.960Z,100645.17
2022-12-25T22:57:50.696Z,100637.36
2022-12-25T22:59:56.558Z,100636.78
2022-12-25T23:02:03.256Z,100622.3
2022-12-25T23:04:09.777Z,100628.34
2022-12-25T23:06:16.209Z,100627.8
2022-12-25T23:08:22.447Z,100621.93
2022-12-25T23:10:27.865Z,100612.5
2022-12-25T23:12:33.814Z,100607.06
2022-12-25T23:14:39.248Z,100599.31
2022-12-25T23:16:45.337Z,100599.5
2022-12-25T23:18:50.585Z,100593.13
2022-12-25T23:20:56.124Z,100589.69
2022-12-25T23:23:01.998Z,100587.47
2022-12-25T23:25:07.437Z,100590.33
2022-12-25T23:27:12.992Z,100589.84
2022-12-25T23:29:18.308Z,100589.83
2022-12-25T23:31:23.993Z,100593.66
2022-12-25T23:33:30.133Z,100592.57
2022-12-25T23:35:35.581Z,100599.29
2022-12-25T23:37:40.986Z,100601.85
2022-12-25T23:39:46.761Z,100607.54
2022-12-25T23:41:51.914Z,100604.92
2022-12-25T23:43:57.366Z,100604.27
2022-12-25T23:46:03.300Z,100603.69
2022-12-25T23:48:08.915Z,100597.48
2022-12-25T23:50:14.077Z,100599.13
2022-12-25T23:52:19.812Z,100597.36
2022-12-25T23:54:25.200Z,100596.22
2022-12-25T23:56:30.525Z,100592.94
2022-12-25T23:58:35.918Z,100585.48
